Time;durP1;ratioP1;P1;durP2;ratioP2;P2;SDS_P1;SDS_P2;PMS_P1;PMS_P2;Temp;Humidity;BMP_temperature;BMP_pressure;BME280_temperature;BME280_humidity;BME280_pressure;Samples;Min_cycle;Max_cycle;Signal;HPM_P1;HPM_P2
2024/01/23 00:00:14;;;;;;;13.63;5.43;;;8.60;1.00;;;;;;5029469;28;20339;-71
2024/01/23 00:02:40;;;;;;;20.30;5.67;;;8.60;1.00;;;;;;5013418;28;20230;-72
2024/01/23 00:05:06;;;;;;;21.10;5.13;;;8.60;1.00;;;;;;5012554;28;20172;-72
2024/01/23 00:07:32;;;;;;;20.63;5.30;;;8.50;1.00;;;;;;5013290;28;20514;-72
2024/01/23 00:09:57;;;;;;;11.10;5.60;;;8.60;1.00;;;;;;5013087;28;20246;-72
2024/01/23 00:12:23;;;;;;;17.10;6.23;;;8.60;1.00;;;;;;5013364;28;20559;-73
2024/01/23 00:14:48;;;;;;;16.43;5.63;;;8.60;1.00;;;;;;5012895;28;20238;-72
2024/01/23 00:17:15;;;;;;;18.90;6.53;;;8.40;1.00;;;;;;5013012;28;20176;-72
2024/01/23 00:19:40;;;;;;;18.23;5.63;;;8.20;99.90;;;;;;5013005;28;20192;-72
2024/01/23 00:22:06;;;;;;;12.97;5.70;;;8.10;1.00;;;;;;5012892;28;20183;-73
2024/01/23 00:24:31;;;;;;;18.10;6.40;;;8.00;99.90;;;;;;5013201;28;20529;-72
2024/01/23 00:26:57;;;;;;;16.00;5.63;;;7.90;99.90;;;;;;5025661;28;20258;-72
2024/01/23 00:29:22;;;;;;;9.73;4.87;;;7.90;21.10;;;;;;5032483;28;20610;-73
2024/01/23 00:31:48;;;;;;;22.57;6.50;;;8.00;1.00;;;;;;5032704;28;20172;-72
2024/01/23 00:34:14;;;;;;;16.20;6.07;;;8.00;1.00;;;;;;5032640;28;20179;-73
2024/01/23 00:36:41;;;;;;;18.93;6.40;;;8.00;1.00;;;;;;5031892;28;20168;-73
2024/01/23 00:39:06;;;;;;;19.53;6.17;;;8.10;99.90;;;;;;5026470;28;20341;-73
2024/01/23 00:41:34;;;;;;;14.27;5.43;;;8.10;78.70;;;;;;5013042;28;20180;-70
2024/01/23 00:44:00;;;;;;;13.60;5.73;;;8.10;1.00;;;;;;5012813;28;20165;-71
2024/01/23 00:46:25;;;;;;;21.17;5.87;;;8.00;1.00;;;;;;5013424;28;20196;-71
2024/01/23 00:48:51;;;;;;;13.13;5.47;;;8.10;1.00;;;;;;5016278;28;20192;-70
2024/01/23 00:51:16;;;;;;;18.07;6.17;;;8.20;99.90;;;;;;5015427;28;20172;-71
2024/01/23 00:53:42;;;;;;;16.37;5.53;;;8.20;99.90;;;;;;5016363;28;20540;-72
2024/01/23 00:56:07;;;;;;;20.97;5.73;;;8.20;99.90;;;;;;5031881;28;20199;-72
2024/01/23 00:58:33;;;;;;;18.63;6.47;;;8.30;99.90;;;;;;5032317;28;20200;-72
2024/01/23 01:00:59;;;;;;;14.50;5.77;;;8.20;1.00;;;;;;5032110;28;20719;-72
2024/01/23 01:03:24;;;;;;;16.67;6.27;;;8.10;99.90;;;;;;5055646;22;20223;-70
2024/01/23 01:05:50;;;;;;;15.00;6.40;;;8.00;77.80;;;;;;5030965;28;20175;-72
2024/01/23 01:08:15;;;;;;;18.17;6.77;;;7.80;1.00;;;;;;5031870;28;20171;-71
2024/01/23 01:10:41;;;;;;;15.60;6.27;;;7.70;1.00;;;;;;5032263;28;20176;-72
2024/01/23 01:13:07;;;;;;;20.47;7.30;;;7.70;1.00;;;;;;5032375;28;20309;-71
2024/01/23 01:15:32;;;;;;;19.13;7.67;;;7.60;99.90;;;;;;5031882;28;20256;-71
2024/01/23 01:17:58;;;;;;;15.23;6.77;;;7.70;97.50;;;;;;5031914;28;20174;-71
2024/01/23 01:20:24;;;;;;;13.70;5.40;;;7.60;99.90;;;;;;5032059;28;20175;-72
2024/01/23 01:22:49;;;;;;;20.07;6.23;;;7.60;99.90;;;;;;5032044;28;20867;-72
2024/01/23 01:25:15;;;;;;;22.40;6.10;;;7.60;1.00;;;;;;5030324;28;20207;-72
2024/01/23 01:27:40;;;;;;;27.00;7.10;;;7.60;1.00;;;;;;5032210;28;20167;-71
2024/01/23 01:30:06;;;;;;;19.97;6.63;;;7.60;1.00;;;;;;5031544;28;20666;-71
2024/01/23 01:32:32;;;;;;;14.27;5.40;;;7.60;1.00;;;;;;5031731;28;20176;-71
2024/01/23 01:34:58;;;;;;;19.60;5.93;;;7.50;1.00;;;;;;5031471;28;20264;-71
2024/01/23 01:37:24;;;;;;;25.20;7.07;;;7.50;1.00;;;;;;5031802;28;20199;-72
2024/01/23 01:39:50;;;;;;;18.83;6.87;;;7.50;1.00;;;;;;5030529;28;20200;-71
2024/01/23 01:42:16;;;;;;;17.77;5.40;;;7.60;99.90;;;;;;5030270;28;20175;-72
2024/01/23 01:44:41;;;;;;;21.63;6.07;;;7.50;99.90;;;;;;5031669;28;20745;-71
2024/01/23 01:47:09;;;;;;;16.37;5.83;;;7.50;1.00;;;;;;5030105;28;20201;-73
2024/01/23 01:49:35;;;;;;;17.87;5.30;;;7.40;1.00;;;;;;5030669;28;20237;-71
2024/01/23 01:52:01;;;;;;;17.70;5.77;;;7.50;1.00;;;;;;5031355;28;20179;-72
2024/01/23 01:54:27;;;;;;;22.03;6.27;;;7.40;1.00;;;;;;5031020;28;20199;-72
2024/01/23 01:56:54;;;;;;;16.23;6.10;;;7.30;99.90;;;;;;5031042;28;20552;-73
2024/01/23 01:59:20;;;;;;;16.17;6.67;;;7.30;99.90;;;;;;5030837;28;20171;-73
2024/01/23 02:01:46;;;;;;;17.67;6.13;;;7.10;99.90;;;;;;5031347;28;20183;-72
2024/01/23 02:04:13;;;;;;;18.70;6.13;;;7.00;99.90;;;;;;5029656;28;20252;-71
2024/01/23 02:06:38;;;;;;;19.27;6.40;;;6.90;99.90;;;;;;5029493;28;20662;-71
2024/01/23 02:09:04;;;;;;;19.07;6.63;;;6.90;1.00;;;;;;5030467;28;20178;-71
2024/01/23 02:11:30;;;;;;;15.90;5.80;;;6.70;1.00;;;;;;5032367;28;20221;-73
2024/01/23 02:13:56;;;;;;;15.20;5.60;;;6.60;1.00;;;;;;5030647;28;20195;-72
2024/01/23 02:16:22;;;;;;;25.17;6.93;;;6.50;1.00;;;;;;5030927;28;20746;-71
2024/01/23 02:18:48;;;;;;;15.93;6.47;;;6.50;1.00;;;;;;5031125;28;20178;-73
2024/01/23 02:21:15;;;;;;;14.13;4.93;;;6.50;1.00;;;;;;5030779;28;20251;-70
2024/01/23 02:23:42;;;;;;;20.50;6.83;;;6.40;1.00;;;;;;5030641;28;20540;-72
2024/01/23 02:26:07;;;;;;;11.37;5.50;;;6.50;1.00;;;;;;5030345;28;20673;-73
2024/01/23 02:28:33;;;;;;;11.57;5.20;;;6.50;1.00;;;;;;5033345;28;20275;-72
2024/01/23 02:30:59;;;;;;;13.80;5.87;;;6.50;1.00;;;;;;5034486;28;20172;-73
2024/01/23 02:33:25;;;;;;;18.77;6.33;;;6.60;1.00;;;;;;5034419;28;20191;-71
2024/01/23 02:35:50;;;;;;;10.03;6.07;;;6.60;99.90;;;;;;5034506;28;20725;-70
2024/01/23 02:38:16;;;;;;;12.60;5.63;;;6.60;99.90;;;;;;5033266;28;20527;-73
2024/01/23 02:40:41;;;;;;;17.03;5.77;;;6.80;1.00;;;;;;5032620;28;20182;-70
2024/01/23 02:43:07;;;;;;;11.47;5.07;;;6.90;1.00;;;;;;5033829;28;20277;-70
2024/01/23 02:45:33;;;;;;;17.57;5.93;;;7.00;61.00;;;;;;5034924;28;20175;-72
2024/01/23 02:47:59;;;;;;;16.27;5.57;;;7.10;1.00;;;;;;5029499;28;20176;-71
2024/01/23 02:50:26;;;;;;;17.37;5.77;;;7.20;1.00;;;;;;5013935;28;20176;-72
2024/01/23 02:52:52;;;;;;;13.80;5.13;;;7.30;1.00;;;;;;5014244;28;20188;-72
2024/01/23 02:55:17;;;;;;;16.20;5.83;;;7.20;1.00;;;;;;5018165;28;20237;-72
2024/01/23 02:57:43;;;;;;;22.53;5.50;;;7.30;1.00;;;;;;5034058;28;20224;-73
2024/01/23 03:00:09;;;;;;;15.63;5.10;;;7.30;1.00;;;;;;5033527;28;20171;-72
2024/01/23 03:02:34;;;;;;;8.57;5.23;;;7.30;1.00;;;;;;5033726;28;20175;-71
2024/01/23 03:05:00;;;;;;;12.67;5.07;;;7.40;1.00;;;;;;5032162;28;20229;-73
2024/01/23 03:07:26;;;;;;;8.97;5.87;;;7.40;1.00;;;;;;5033888;28;20226;-74
2024/01/23 03:09:52;;;;;;;16.07;5.27;;;7.40;1.00;;;;;;5031692;28;20266;-72
2024/01/23 03:12:20;;;;;;;11.70;4.73;;;7.40;1.00;;;;;;5032159;28;20179;-75
2024/01/23 03:14:47;;;;;;;15.80;4.93;;;7.40;1.00;;;;;;5031514;28;20203;-73
2024/01/23 03:17:14;;;;;;;17.93;4.90;;;7.30;1.00;;;;;;5033365;28;20172;-74
2024/01/23 03:19:41;;;;;;;14.67;5.50;;;7.40;1.00;;;;;;5033328;28;20248;-75
2024/01/23 03:22:07;;;;;;;12.27;5.17;;;7.40;1.00;;;;;;5033273;28;20211;-74
2024/01/23 03:24:33;;;;;;;21.10;5.50;;;7.50;1.00;;;;;;5033060;28;20278;-73
2024/01/23 03:26:59;;;;;;;17.60;5.80;;;7.40;1.00;;;;;;5033140;28;20179;-74
2024/01/23 03:29:25;;;;;;;15.17;4.90;;;7.40;1.00;;;;;;5033324;28;20254;-74
2024/01/23 03:31:52;;;;;;;16.63;5.67;;;7.50;1.00;;;;;;5033444;28;20466;-74
2024/01/23 03:34:19;;;;;;;15.10;4.57;;;7.30;3.70;;;;;;5033063;28;20188;-73
2024/01/23 03:36:45;;;;;;;11.47;6.50;;;7.30;89.50;;;;;;5033206;28;20527;-74
2024/01/23 03:39:11;;;;;;;11.37;5.23;;;7.30;99.90;;;;;;5032291;28;20190;-74
2024/01/23 03:41:37;;;;;;;16.10;5.73;;;7.10;99.90;;;;;;5031726;28;20202;-72
2024/01/23 03:44:05;;;;;;;9.37;4.67;;;7.00;99.90;;;;;;5032658;28;20199;-72
2024/01/23 03:46:32;;;;;;;13.23;5.37;;;7.10;1.00;;;;;;5031725;28;20176;-74
2024/01/23 03:48:57;;;;;;;15.33;5.60;;;7.00;1.00;;;;;;5032899;28;20178;-73
2024/01/23 03:51:23;;;;;;;17.00;6.00;;;6.90;1.00;;;;;;5032573;28;20658;-74
2024/01/23 03:53:49;;;;;;;12.83;5.53;;;6.90;1.00;;;;;;5032810;28;20218;-75
2024/01/23 03:56:15;;;;;;;18.43;5.63;;;6.80;1.00;;;;;;5032468;28;20237;-73
2024/01/23 03:58:41;;;;;;;16.33;5.80;;;6.90;1.00;;;;;;5032447;28;20182;-74
2024/01/23 04:01:07;;;;;;;15.30;5.87;;;6.80;1.00;;;;;;5032580;28;20175;-73
2024/01/23 04:03:33;;;;;;;21.97;6.33;;;6.80;75.20;;;;;;5032479;28;20203;-74
2024/01/23 04:05:58;;;;;;;20.67;6.10;;;6.80;91.50;;;;;;5032596;28;20527;-73
2024/01/23 04:08:24;;;;;;;17.13;5.80;;;6.70;99.90;;;;;;5032728;28;20952;-73
2024/01/23 04:10:50;;;;;;;16.07;5.70;;;6.80;99.90;;;;;;5032466;28;20263;-74
2024/01/23 04:13:15;;;;;;;10.40;5.53;;;6.70;99.90;;;;;;5032273;28;20631;-73
2024/01/23 04:15:41;;;;;;;13.03;6.67;;;6.70;99.90;;;;;;5032100;28;20210;-71
2024/01/23 04:18:07;;;;;;;19.73;6.67;;;6.70;99.90;;;;;;5032126;28;20233;-71
2024/01/23 04:20:32;;;;;;;19.93;6.03;;;6.70;1.00;;;;;;5031906;28;20171;-72
2024/01/23 04:22:59;;;;;;;13.23;5.17;;;6.60;1.00;;;;;;5032117;28;20601;-73
2024/01/23 04:25:24;;;;;;;17.70;6.53;;;6.60;92.90;;;;;;5031881;28;20237;-72
2024/01/23 04:27:50;;;;;;;15.53;6.00;;;6.40;99.90;;;;;;5031741;28;20183;-72
2024/01/23 04:30:16;;;;;;;22.10;6.47;;;6.40;1.00;;;;;;5031653;28;20566;-74
2024/01/23 04:32:41;;;;;;;12.53;5.00;;;6.40;1.00;;;;;;5031964;28;20179;-72
2024/01/23 04:35:07;;;;;;;11.77;5.13;;;6.40;1.00;;;;;;5032769;28;20196;-71
2024/01/23 04:37:33;;;;;;;13.93;5.23;;;6.40;1.00;;;;;;5032778;28;20567;-72
2024/01/23 04:40:00;;;;;;;20.80;5.43;;;6.40;1.00;;;;;;5032118;28;20172;-73
2024/01/23 04:42:25;;;;;;;18.63;6.03;;;6.40;1.00;;;;;;5031926;28;20171;-72
2024/01/23 04:44:51;;;;;;;15.77;6.73;;;6.30;1.00;;;;;;5030210;28;20249;-72
2024/01/23 04:47:17;;;;;;;20.17;5.50;;;6.30;1.00;;;;;;5030482;28;20179;-71
2024/01/23 04:49:42;;;;;;;16.37;5.93;;;6.30;1.00;;;;;;5030890;28;20175;-72
2024/01/23 04:52:08;;;;;;;13.93;5.40;;;6.20;1.00;;;;;;5030380;28;20179;-70
2024/01/23 04:54:33;;;;;;;16.87;5.87;;;6.20;33.80;;;;;;5030951;28;20211;-73
2024/01/23 04:56:59;;;;;;;17.23;5.47;;;6.10;11.90;;;;;;5031910;28;20186;-71
2024/01/23 04:59:25;;;;;;;13.07;5.73;;;6.10;38.60;;;;;;5031316;28;20606;-71
2024/01/23 05:01:50;;;;;;;19.67;6.10;;;6.10;47.80;;;;;;5032627;28;20168;-71
2024/01/23 05:04:16;;;;;;;14.53;6.13;;;6.10;1.00;;;;;;5032304;28;20215;-72
2024/01/23 05:06:41;;;;;;;14.47;5.83;;;6.10;49.40;;;;;;5031390;28;20543;-72
2024/01/23 05:09:07;;;;;;;15.57;5.30;;;6.10;99.90;;;;;;5031364;28;20171;-73
2024/01/23 05:11:33;;;;;;;18.93;5.90;;;6.10;25.30;;;;;;5031954;28;20505;-73
2024/01/23 05:13:58;;;;;;;17.70;5.50;;;6.00;99.90;;;;;;5032004;28;20697;-71
2024/01/23 05:16:24;;;;;;;20.47;6.57;;;6.00;99.90;;;;;;5031969;28;20211;-73
2024/01/23 05:18:49;;;;;;;14.83;6.33;;;5.90;99.90;;;;;;5032199;28;20659;-71
2024/01/23 05:21:15;;;;;;;14.27;5.57;;;5.90;1.00;;;;;;5030943;28;20305;-72
2024/01/23 05:23:42;;;;;;;14.90;5.80;;;5.80;1.00;;;;;;5031269;28;20214;-72
2024/01/23 05:26:08;;;;;;;19.27;5.97;;;5.80;1.00;;;;;;5032045;28;20589;-71
2024/01/23 05:28:33;;;;;;;15.10;5.50;;;5.80;1.00;;;;;;5030007;28;20176;-72
2024/01/23 05:30:59;;;;;;;15.20;5.80;;;5.70;1.00;;;;;;5031653;28;20209;-73
2024/01/23 05:33:24;;;;;;;18.97;5.70;;;5.70;1.00;;;;;;5030836;28;20232;-71
2024/01/23 05:35:50;;;;;;;21.13;5.80;;;5.60;1.00;;;;;;5030987;28;20225;-71
2024/01/23 05:38:16;;;;;;;10.67;5.03;;;5.70;1.00;;;;;;5031053;28;20712;-73
2024/01/23 05:40:41;;;;;;;15.40;5.67;;;5.70;1.00;;;;;;5032770;28;20241;-72
2024/01/23 05:43:07;;;;;;;16.10;5.77;;;5.70;1.00;;;;;;5030909;28;20536;-73
2024/01/23 05:45:33;;;;;;;13.17;6.30;;;5.70;1.00;;;;;;5030119;28;20176;-73
2024/01/23 05:47:58;;;;;;;15.67;6.20;;;5.70;1.00;;;;;;5029892;28;20184;-73
2024/01/23 05:50:24;;;;;;;12.40;5.27;;;5.70;1.00;;;;;;5032253;28;20202;-72
2024/01/23 05:52:49;;;;;;;18.70;5.60;;;5.70;99.90;;;;;;5032783;28;20202;-74
2024/01/23 05:55:15;;;;;;;14.13;5.40;;;5.70;1.00;;;;;;5032702;28;20290;-71
2024/01/23 05:57:41;;;;;;;16.60;6.27;;;5.70;99.90;;;;;;5032524;28;20243;-72
2024/01/23 06:00:09;;;;;;;14.37;5.63;;;5.60;1.00;;;;;;5030015;28;20647;-71
2024/01/23 06:02:35;;;;;;;13.53;5.70;;;5.60;99.90;;;;;;5031698;28;20248;-71
2024/01/23 06:05:00;;;;;;;16.50;5.23;;;5.70;99.90;;;;;;5035753;28;20183;-73
2024/01/23 06:07:26;;;;;;;17.43;6.43;;;5.70;43.80;;;;;;5034873;28;20183;-72
2024/01/23 06:09:52;;;;;;;13.17;6.03;;;5.70;1.00;;;;;;5036308;28;20184;-72
2024/01/23 06:12:18;;;;;;;20.50;6.27;;;5.60;1.00;;;;;;5035511;28;20175;-73
2024/01/23 06:14:43;;;;;;;16.40;6.40;;;5.70;4.30;;;;;;5034559;28;20250;-72
2024/01/23 06:17:09;;;;;;;16.83;7.63;;;5.60;1.00;;;;;;5034969;28;20195;-70
2024/01/23 06:19:35;;;;;;;19.23;5.57;;;5.60;1.00;;;;;;5033210;28;20662;-72
2024/01/23 06:22:00;;;;;;;13.40;5.53;;;5.70;1.00;;;;;;5034530;28;20182;-72
2024/01/23 06:24:26;;;;;;;15.00;5.67;;;5.70;99.90;;;;;;5033840;28;20270;-71
2024/01/23 06:26:52;;;;;;;18.90;6.47;;;5.70;99.90;;;;;;5034449;28;20183;-72
2024/01/23 06:29:17;;;;;;;22.50;6.27;;;5.70;99.90;;;;;;5033956;28;20175;-71
2024/01/23 06:31:43;;;;;;;16.27;5.83;;;5.60;99.90;;;;;;5034552;28;20167;-71
2024/01/23 06:34:09;;;;;;;11.60;5.03;;;5.60;99.90;;;;;;5034146;28;20187;-73
2024/01/23 06:36:37;;;;;;;18.37;5.77;;;5.60;1.00;;;;;;5034326;28;20194;-73
2024/01/23 06:39:03;;;;;;;14.63;5.50;;;5.60;1.00;;;;;;5034131;28;20180;-71
2024/01/23 06:41:29;;;;;;;21.23;6.63;;;5.70;1.00;;;;;;5034196;28;20168;-71
2024/01/23 06:43:54;;;;;;;15.83;6.77;;;5.60;1.00;;;;;;5032684;28;20207;-71
2024/01/23 06:46:20;;;;;;;11.00;5.47;;;5.70;1.00;;;;;;5034051;28;20195;-72
2024/01/23 06:48:46;;;;;;;17.63;6.10;;;5.60;1.00;;;;;;5034131;28;20542;-71
2024/01/23 06:51:11;;;;;;;15.17;5.70;;;5.70;99.90;;;;;;5033783;28;20171;-70
2024/01/23 06:53:37;;;;;;;15.27;5.73;;;5.70;99.90;;;;;;5033774;28;20253;-72
2024/01/23 06:56:03;;;;;;;15.23;5.77;;;5.70;99.90;;;;;;5033836;28;20294;-70
2024/01/23 06:58:29;;;;;;;15.83;5.87;;;5.70;99.90;;;;;;5033370;28;20214;-71
2024/01/23 07:00:55;;;;;;;14.87;5.93;;;5.70;1.00;;;;;;5032101;28;20195;-72
2024/01/23 07:03:20;;;;;;;11.77;5.10;;;5.60;1.00;;;;;;5033401;28;20282;-71
2024/01/23 07:05:46;;;;;;;13.87;5.70;;;5.70;1.00;;;;;;5033821;28;20175;-71
2024/01/23 07:08:12;;;;;;;19.77;7.33;;;5.60;1.00;;;;;;5033530;28;20184;-71
2024/01/23 07:10:37;;;;;;;15.50;6.30;;;5.70;1.00;;;;;;5033307;28;20179;-72
2024/01/23 07:13:03;;;;;;;16.23;6.90;;;5.60;1.00;;;;;;5032410;28;20238;-71
2024/01/23 07:15:29;;;;;;;17.27;6.80;;;5.70;1.00;;;;;;5033112;28;20199;-73
2024/01/23 07:17:54;;;;;;;16.33;5.70;;;5.60;1.00;;;;;;5033275;28;20174;-72
2024/01/23 07:20:20;;;;;;;19.43;6.00;;;5.70;1.00;;;;;;5031585;28;20182;-71
2024/01/23 07:22:46;;;;;;;18.13;6.63;;;5.70;1.00;;;;;;5033538;28;20167;-72
2024/01/23 07:25:12;;;;;;;13.07;5.43;;;5.60;1.00;;;;;;5032747;28;20665;-71
2024/01/23 07:27:37;;;;;;;18.67;5.90;;;5.60;1.00;;;;;;5031977;28;20179;-72
2024/01/23 07:30:04;;;;;;;20.23;6.20;;;5.60;1.00;;;;;;5033159;28;20171;-71
2024/01/23 07:32:30;;;;;;;15.43;5.73;;;5.60;1.00;;;;;;5033045;28;20182;-70
2024/01/23 07:34:55;;;;;;;20.37;6.17;;;5.50;1.00;;;;;;5032632;28;20204;-71
2024/01/23 07:37:21;;;;;;;10.70;5.43;;;5.50;99.90;;;;;;5032673;28;20167;-70
2024/01/23 07:39:49;;;;;;;18.43;5.47;;;5.60;99.90;;;;;;5032737;28;20171;-69
2024/01/23 07:42:14;;;;;;;21.70;5.60;;;5.60;99.90;;;;;;5033086;28;20163;-70
2024/01/23 07:44:42;;;;;;;12.43;4.93;;;5.60;1.00;;;;;;5032986;28;20195;-71
2024/01/23 07:47:08;;;;;;;19.60;5.53;;;5.60;1.00;;;;;;5032961;28;20564;-70
2024/01/23 07:49:33;;;;;;;17.13;5.80;;;5.70;1.00;;;;;;5032330;28;20442;-72
2024/01/23 07:51:59;;;;;;;16.83;6.20;;;5.80;99.90;;;;;;5032921;28;20229;-71
2024/01/23 07:54:24;;;;;;;13.60;5.93;;;5.80;99.90;;;;;;5032337;28;20213;-71
2024/01/23 07:56:50;;;;;;;15.80;5.30;;;5.80;99.90;;;;;;5032510;28;20586;-72
2024/01/23 07:59:16;;;;;;;13.10;6.27;;;5.80;99.90;;;;;;5031349;28;20669;-72
2024/01/23 08:01:42;;;;;;;15.57;5.60;;;5.80;99.90;;;;;;5033208;28;20686;-72
2024/01/23 08:04:08;;;;;;;19.10;5.77;;;5.80;1.00;;;;;;5032470;28;20261;-71
2024/01/23 08:06:33;;;;;;;17.83;6.73;;;5.80;99.90;;;;;;5030758;28;20175;-71
2024/01/23 08:08:59;;;;;;;13.03;6.00;;;5.90;99.90;;;;;;5032172;28;20183;-71
2024/01/23 08:11:25;;;;;;;17.10;5.57;;;5.90;1.00;;;;;;5031815;28;20271;-72
2024/01/23 08:13:51;;;;;;;20.37;7.40;;;5.90;1.00;;;;;;5032143;28;20192;-71
2024/01/23 08:16:16;;;;;;;16.17;5.53;;;6.00;1.00;;;;;;5031906;28;20234;-71
2024/01/23 08:18:42;;;;;;;17.03;6.23;;;6.00;1.00;;;;;;5031987;28;20224;-71
2024/01/23 08:21:09;;;;;;;16.57;5.73;;;6.00;1.00;;;;;;5031841;28;20184;-72
2024/01/23 08:23:35;;;;;;;11.70;5.70;;;6.00;1.00;;;;;;5030514;28;20214;-71
2024/01/23 08:26:01;;;;;;;13.77;5.83;;;6.10;99.90;;;;;;5031217;28;20172;-72
2024/01/23 08:28:27;;;;;;;17.17;6.23;;;6.00;99.90;;;;;;5031927;28;20171;-73
2024/01/23 08:30:53;;;;;;;18.90;6.47;;;6.10;99.90;;;;;;5031901;28;20164;-72
2024/01/23 08:33:20;;;;;;;14.73;5.87;;;6.10;99.90;;;;;;5031757;28;20566;-73
2024/01/23 08:35:46;;;;;;;18.37;5.93;;;6.20;99.90;;;;;;5031813;28;20218;-72
2024/01/23 08:38:11;;;;;;;13.13;5.07;;;6.40;99.90;;;;;;5032068;28;20179;-72
2024/01/23 08:40:38;;;;;;;17.43;5.73;;;6.50;1.00;;;;;;5031325;28;20175;-72
2024/01/23 08:43:05;;;;;;;20.37;5.83;;;6.80;99.90;;;;;;5031803;28;20210;-72
2024/01/23 08:45:30;;;;;;;12.67;5.30;;;7.00;1.00;;;;;;5031614;28;20202;-72
2024/01/23 08:47:56;;;;;;;18.17;4.80;;;7.20;1.00;;;;;;5032022;28;20203;-72
2024/01/23 08:50:22;;;;;;;14.53;5.73;;;7.50;99.90;;;;;;5031734;28;20210;-73
2024/01/23 08:52:48;;;;;;;14.53;5.63;;;7.60;99.90;;;;;;5031846;28;20176;-72
2024/01/23 08:55:14;;;;;;;9.30;5.47;;;7.70;99.90;;;;;;5031970;28;20195;-71
2024/01/23 08:57:40;;;;;;;20.30;5.00;;;7.90;99.90;;;;;;5029710;28;20186;-72
2024/01/23 09:00:11;;;;;;;24.37;6.53;;;8.00;99.90;;;;;;5031660;28;20601;-72
2024/01/23 09:02:37;;;;;;;17.33;5.93;;;8.20;99.90;;;;;;5020711;28;20176;-70
2024/01/23 09:05:03;;;;;;;20.67;5.60;;;8.30;99.90;;;;;;5011915;28;20180;-70
2024/01/23 09:07:29;;;;;;;16.70;5.60;;;8.30;99.90;;;;;;5011546;28;20223;-74
2024/01/23 09:09:55;;;;;;;9.23;5.47;;;8.30;98.70;;;;;;5011797;28;20546;-72
2024/01/23 09:12:21;;;;;;;17.30;5.37;;;8.50;94.90;;;;;;5011363;28;20179;-72
2024/01/23 09:14:47;;;;;;;15.80;5.73;;;8.60;83.20;;;;;;5011383;28;20656;-72
2024/01/23 09:17:13;;;;;;;12.37;5.70;;;8.70;53.80;;;;;;5021988;28;20176;-69
2024/01/23 09:19:39;;;;;;;11.07;4.80;;;8.80;29.40;;;;;;5031195;28;20201;-71
2024/01/23 09:22:05;;;;;;;9.77;5.17;;;8.60;28.70;;;;;;5031511;28;20534;-70
2024/01/23 09:24:31;;;;;;;15.77;5.73;;;8.60;38.50;;;;;;5031013;28;20188;-71
2024/01/23 09:27:00;;;;;;;16.33;4.77;;;8.60;38.70;;;;;;5031290;28;20205;-70
2024/01/23 09:29:28;;;;;;;15.53;5.87;;;8.70;33.30;;;;;;5031064;28;20167;-72
2024/01/23 09:31:55;;;;;;;13.87;6.70;;;8.80;27.50;;;;;;5031315;28;20221;-72
2024/01/23 09:34:20;;;;;;;12.67;5.93;;;8.80;23.90;;;;;;5030844;28;20195;-71
2024/01/23 09:36:46;;;;;;;15.23;6.17;;;9.00;22.00;;;;;;5030796;28;20657;-71
2024/01/23 09:39:13;;;;;;;17.17;5.97;;;9.20;18.70;;;;;;5031014;28;20179;-72
2024/01/23 09:41:46;;;;;;;12.90;6.13;;;9.40;1.00;;;;;;5031244;28;20249;-71
2024/01/23 09:44:12;;;;;;;20.53;5.77;;;9.50;1.00;;;;;;5030951;28;20198;-71
2024/01/23 09:46:38;;;;;;;11.17;5.67;;;9.50;1.00;;;;;;5031000;28;20183;-71
2024/01/23 09:49:03;;;;;;;13.23;4.60;;;9.50;1.00;;;;;;5022474;28;20180;-70
2024/01/23 09:51:30;;;;;;;13.27;6.07;;;9.60;1.00;;;;;;5010846;28;20168;-71
2024/01/23 09:53:56;;;;;;;16.10;6.30;;;9.60;1.00;;;;;;5011090;28;20199;-72
2024/01/23 09:56:22;;;;;;;21.77;6.20;;;9.70;1.00;;;;;;5028697;28;20211;-71
2024/01/23 09:58:49;;;;;;;22.70;5.77;;;9.60;1.00;;;;;;5030820;28;20248;-72
2024/01/23 10:01:17;;;;;;;13.00;5.90;;;9.60;1.00;;;;;;5030736;28;20175;-72
2024/01/23 10:03:48;;;;;;;16.10;5.37;;;9.80;1.00;;;;;;5030989;28;20207;-73
2024/01/23 10:06:17;;;;;;;19.27;5.33;;;10.00;1.00;;;;;;5030779;28;20669;-73
2024/01/23 10:08:42;;;;;;;14.77;4.93;;;10.00;1.00;;;;;;5031096;28;20188;-73
2024/01/23 10:11:10;;;;;;;14.00;5.07;;;10.00;1.00;;;;;;5030672;28;20179;-72
2024/01/23 10:13:37;;;;;;;17.07;5.57;;;10.20;1.00;;;;;;5030549;28;20670;-72
2024/01/23 10:16:04;;;;;;;14.70;4.83;;;10.50;1.00;;;;;;5030961;28;20211;-73
2024/01/23 10:18:29;;;;;;;13.80;5.03;;;10.70;1.00;;;;;;5030361;28;20198;-72
2024/01/23 10:20:55;;;;;;;13.20;5.43;;;10.60;99.90;;;;;;5029943;28;20168;-72
2024/01/23 10:23:21;;;;;;;19.73;5.07;;;10.60;99.90;;;;;;5031414;28;20290;-72
2024/01/23 10:25:47;;;;;;;18.80;5.77;;;10.50;99.90;;;;;;5030685;28;20180;-72
2024/01/23 10:28:13;;;;;;;16.23;5.93;;;10.30;99.90;;;;;;5030878;28;20168;-72
2024/01/23 10:30:40;;;;;;;17.10;5.67;;;10.20;99.90;;;;;;5030456;28;20527;-73
2024/01/23 10:33:06;;;;;;;17.83;4.70;;;10.20;99.90;;;;;;5030777;28;20618;-73
2024/01/23 10:35:36;;;;;;;11.73;4.83;;;10.00;99.90;;;;;;5030302;28;20211;-71
2024/01/23 10:38:03;;;;;;;14.40;5.03;;;9.90;99.90;;;;;;5030911;28;20179;-72
2024/01/23 10:40:29;;;;;;;15.23;5.97;;;9.80;99.90;;;;;;5029656;28;20178;-74
2024/01/23 10:43:01;;;;;;;9.90;4.87;;;9.80;99.90;;;;;;5028541;28;20207;-72
2024/01/23 10:45:27;;;;;;;14.97;5.30;;;9.90;99.90;;;;;;5030131;28;20682;-72
2024/01/23 10:47:56;;;;;;;17.47;5.53;;;10.10;99.90;;;;;;5030350;28;20288;-72
2024/01/23 10:50:22;;;;;;;14.23;5.87;;;10.20;99.90;;;;;;5033479;28;20207;-73
2024/01/23 10:52:48;;;;;;;14.30;4.97;;;10.40;99.90;;;;;;5033751;28;20179;-73
2024/01/23 10:55:16;;;;;;;10.23;5.17;;;10.60;99.90;;;;;;5033840;28;20203;-71
2024/01/23 10:57:46;;;;;;;20.93;5.73;;;10.70;67.50;;;;;;5033522;28;20309;-72
2024/01/23 11:00:17;;;;;;;18.23;6.30;;;10.70;94.80;;;;;;5033520;28;20206;-71
2024/01/23 11:02:50;;;;;;;8.30;4.83;;;10.60;91.30;;;;;;5033118;28;20544;-71
2024/01/23 11:05:20;;;;;;;22.27;6.33;;;10.70;1.00;;;;;;5033324;28;20557;-71
2024/01/23 11:08:16;;;;;;;14.10;5.03;;;10.80;88.80;;;;;;5033437;28;20598;-70
2024/01/23 11:10:57;;;;;;;14.30;4.63;;;11.00;94.40;;;;;;5032952;28;20187;-70
2024/01/23 11:13:32;;;;;;;17.07;5.43;;;11.10;99.90;;;;;;5033382;28;20286;-71
2024/01/23 11:16:03;;;;;;;15.00;5.43;;;11.20;99.90;;;;;;5033409;28;20281;-71
2024/01/23 11:18:32;;;;;;;11.90;5.10;;;11.00;99.90;;;;;;5033094;28;20168;-71
2024/01/23 11:21:04;;;;;;;15.23;4.87;;;11.00;99.90;;;;;;5033090;28;20703;-71
2024/01/23 11:23:35;;;;;;;16.63;5.47;;;10.80;99.90;;;;;;5032351;28;20195;-70
2024/01/23 11:26:03;;;;;;;12.80;5.40;;;10.80;99.90;;;;;;5033136;28;20223;-71
2024/01/23 11:28:33;;;;;;;17.87;5.43;;;10.60;99.90;;;;;;5033087;28;20171;-71
2024/01/23 11:31:09;;;;;;;15.23;5.50;;;10.40;99.90;;;;;;5033161;28;20203;-72
2024/01/23 11:33:35;;;;;;;14.23;5.50;;;10.30;99.90;;;;;;5032938;28;20281;-71
2024/01/23 11:36:23;;;;;;;15.83;4.97;;;10.40;99.90;;;;;;5032893;28;20199;-70
2024/01/23 11:39:00;;;;;;;15.50;5.50;;;10.50;99.90;;;;;;5032903;28;20175;-71
2024/01/23 11:41:27;;;;;;;16.77;5.77;;;10.50;99.90;;;;;;5032617;28;20173;-71
2024/01/23 11:44:03;;;;;;;15.33;4.90;;;10.50;99.90;;;;;;5033009;28;20658;-71
2024/01/23 11:46:30;;;;;;;11.33;6.10;;;10.60;99.90;;;;;;5032216;28;20179;-71
2024/01/23 11:48:55;;;;;;;23.13;5.87;;;10.50;99.90;;;;;;5033009;28;20202;-73
2024/01/23 11:51:21;;;;;;;14.47;5.10;;;10.60;99.90;;;;;;5032133;28;20183;-73
2024/01/23 11:53:47;;;;;;;21.37;6.23;;;10.60;99.90;;;;;;5032418;28;20196;-73
2024/01/23 11:56:14;;;;;;;13.43;5.77;;;10.60;99.90;;;;;;5032506;28;20214;-72
2024/01/23 11:58:43;;;;;;;17.77;5.20;;;10.60;99.90;;;;;;5032209;28;20615;-72
2024/01/23 12:01:12;;;;;;;16.07;7.30;;;10.50;99.90;;;;;;5032745;28;20172;-72
2024/01/23 12:03:47;;;;;;;18.07;6.93;;;10.30;99.90;;;;;;5031963;28;20557;-73
2024/01/23 12:06:14;;;;;;;15.17;5.93;;;10.10;99.90;;;;;;5032427;28;20167;-72
2024/01/23 12:08:41;;;;;;;18.70;5.73;;;10.10;99.90;;;;;;5032568;28;20647;-73
2024/01/23 12:11:07;;;;;;;16.37;4.90;;;10.10;99.90;;;;;;5032330;28;20263;-73
2024/01/23 12:13:32;;;;;;;18.97;6.33;;;10.00;99.90;;;;;;5032488;28;20274;-72
2024/01/23 12:15:58;;;;;;;17.23;6.27;;;10.00;99.90;;;;;;5032817;28;20195;-72
2024/01/23 12:18:23;;;;;;;20.00;6.53;;;10.00;99.90;;;;;;5032139;28;20168;-71
2024/01/23 12:20:56;;;;;;;16.27;5.97;;;10.00;99.90;;;;;;5032290;28;20176;-72
2024/01/23 12:23:24;;;;;;;18.77;5.73;;;10.00;99.90;;;;;;5032047;28;20249;-72
2024/01/23 12:25:49;;;;;;;20.37;6.10;;;9.90;99.90;;;;;;5032060;28;20175;-72
2024/01/23 12:28:17;;;;;;;19.33;6.23;;;10.00;99.90;;;;;;5032219;28;20198;-72
2024/01/23 12:30:44;;;;;;;21.97;6.10;;;10.00;99.90;;;;;;5031806;28;20195;-72
2024/01/23 12:33:17;;;;;;;17.40;5.50;;;10.00;99.90;;;;;;5032156;28;20246;-72
2024/01/23 12:35:44;;;;;;;26.20;6.77;;;9.90;99.90;;;;;;5031144;28;20513;-72
2024/01/23 12:38:16;;;;;;;18.00;6.13;;;9.90;99.90;;;;;;5030808;28;20624;-73
2024/01/23 12:40:42;;;;;;;17.20;5.47;;;9.80;99.90;;;;;;5031772;28;20251;-72
2024/01/23 12:43:09;;;;;;;13.47;5.60;;;9.90;99.90;;;;;;5031970;28;20626;-72
2024/01/23 12:45:34;;;;;;;14.10;5.87;;;9.80;99.90;;;;;;5031854;28;20514;-72